sensor_id;sensor_type;location;lat;lon;timestamp;pressure;altitude;pressure_sealevel;temperature;humidity
54194;BME280;40102;50.906;6.972;2023-04-27T00:00:49;101266.34;;;11.66;43.19
54194;BME280;40102;50.906;6.972;2023-04-27T00:03:14;101258.41;;;11.65;43.20
54194;BME280;40102;50.906;6.972;2023-04-27T00:05:40;101262.03;;;11.64;43.24
54194;BME280;40102;50.906;6.972;2023-04-27T00:08:05;101269.03;;;11.66;43.30
54194;BME280;40102;50.906;6.972;2023-04-27T00:10:31;101268.41;;;11.61;43.36
54194;BME280;40102;50.906;6.972;2023-04-27T00:13:00;101279.03;;;11.63;43.25
54194;BME280;40102;50.906;6.972;2023-04-27T00:15:26;101272.09;;;11.59;43.44
54194;BME280;40102;50.906;6.972;2023-04-27T00:17:51;101264.22;;;11.56;43.37
54194;BME280;40102;50.906;6.972;2023-04-27T00:20:17;101280.00;;;11.62;43.70
54194;BME280;40102;50.906;6.972;2023-04-27T00:22:43;101268.00;;;11.52;43.69
54194;BME280;40102;50.906;6.972;2023-04-27T00:25:08;101268.78;;;11.54;43.81
54194;BME280;40102;50.906;6.972;2023-04-27T00:27:33;101283.69;;;11.59;43.94
54194;BME280;40102;50.906;6.972;2023-04-27T00:29:59;101274.00;;;11.57;43.75
54194;BME280;40102;50.906;6.972;2023-04-27T00:32:24;101275.25;;;11.50;43.94
54194;BME280;40102;50.906;6.972;2023-04-27T00:34:51;101270.75;;;11.50;44.04
54194;BME280;40102;50.906;6.972;2023-04-27T00:37:17;101286.69;;;11.53;44.37
54194;BME280;40102;50.906;6.972;2023-04-27T00:39:42;101279.75;;;11.49;44.32
54194;BME280;40102;50.906;6.972;2023-04-27T00:42:08;101277.22;;;11.46;44.33
54194;BME280;40102;50.906;6.972;2023-04-27T00:44:37;101279.19;;;11.43;44.44
54194;BME280;40102;50.906;6.972;2023-04-27T00:47:03;101270.44;;;11.39;44.56
54194;BME280;40102;50.906;6.972;2023-04-27T00:49:28;101276.34;;;11.46;44.71
54194;BME280;40102;50.906;6.972;2023-04-27T00:51:54;101289.66;;;11.47;45.10
54194;BME280;40102;50.906;6.972;2023-04-27T00:54:21;101279.25;;;11.41;44.90
54194;BME280;40102;50.906;6.972;2023-04-27T00:56:50;101273.97;;;11.40;45.04
54194;BME280;40102;50.906;6.972;2023-04-27T00:59:17;101273.13;;;11.39;45.06
54194;BME280;40102;50.906;6.972;2023-04-27T01:01:43;101270.81;;;11.31;44.70
54194;BME280;40102;50.906;6.972;2023-04-27T01:04:08;101259.41;;;11.28;44.96
54194;BME280;40102;50.906;6.972;2023-04-27T01:06:34;101263.00;;;11.27;45.07
54194;BME280;40102;50.906;6.972;2023-04-27T01:08:59;101271.84;;;11.29;45.25
54194;BME280;40102;50.906;6.972;2023-04-27T01:11:25;101267.34;;;11.29;45.19
54194;BME280;40102;50.906;6.972;2023-04-27T01:13:51;101282.41;;;11.32;45.14
54194;BME280;40102;50.906;6.972;2023-04-27T01:16:18;101272.06;;;11.24;45.50
54194;BME280;40102;50.906;6.972;2023-04-27T01:18:43;101278.44;;;11.22;45.76
54194;BME280;40102;50.906;6.972;2023-04-27T01:21:09;101278.75;;;11.16;45.78
54194;BME280;40102;50.906;6.972;2023-04-27T01:23:35;101276.16;;;11.14;45.76
54194;BME280;40102;50.906;6.972;2023-04-27T01:26:00;101286.47;;;11.22;45.85
54194;BME280;40102;50.906;6.972;2023-04-27T01:28:26;101280.56;;;11.15;45.92
54194;BME280;40102;50.906;6.972;2023-04-27T01:30:51;101276.16;;;11.14;46.01
54194;BME280;40102;50.906;6.972;2023-04-27T01:33:16;101291.13;;;11.18;46.04
54194;BME280;40102;50.906;6.972;2023-04-27T01:35:42;101286.13;;;11.11;46.48
54194;BME280;40102;50.906;6.972;2023-04-27T01:38:07;101288.50;;;11.17;46.15
54194;BME280;40102;50.906;6.972;2023-04-27T01:40:33;101273.63;;;11.11;46.27
54194;BME280;40102;50.906;6.972;2023-04-27T01:42:58;101273.69;;;11.10;46.65
54194;BME280;40102;50.906;6.972;2023-04-27T01:45:23;101271.16;;;11.07;46.49
54194;BME280;40102;50.906;6.972;2023-04-27T01:47:50;101272.03;;;11.07;46.57
54194;BME280;40102;50.906;6.972;2023-04-27T01:50:16;101276.66;;;11.03;46.74
54194;BME280;40102;50.906;6.972;2023-04-27T01:52:41;101276.81;;;11.00;46.92
54194;BME280;40102;50.906;6.972;2023-04-27T01:55:07;101283.91;;;11.01;46.87
54194;BME280;40102;50.906;6.972;2023-04-27T01:57:32;101282.31;;;10.97;46.84
54194;BME280;40102;50.906;6.972;2023-04-27T01:59:58;101276.25;;;10.94;46.64
54194;BME280;40102;50.906;6.972;2023-04-27T02:02:23;101277.91;;;10.96;46.72
54194;BME280;40102;50.906;6.972;2023-04-27T02:04:48;101274.38;;;10.96;46.77
54194;BME280;40102;50.906;6.972;2023-04-27T02:07:14;101299.97;;;11.01;46.88
54194;BME280;40102;50.906;6.972;2023-04-27T02:09:39;101297.22;;;11.03;46.84
54194;BME280;40102;50.906;6.972;2023-04-27T02:12:05;101284.13;;;10.97;46.88
54194;BME280;40102;50.906;6.972;2023-04-27T02:14:30;101286.81;;;10.97;46.75
54194;BME280;40102;50.906;6.972;2023-04-27T02:16:55;101299.09;;;11.01;46.80
54194;BME280;40102;50.906;6.972;2023-04-27T02:19:21;101292.16;;;10.97;46.80
54194;BME280;40102;50.906;6.972;2023-04-27T02:21:46;101286.94;;;10.94;46.76
54194;BME280;40102;50.906;6.972;2023-04-27T02:24:12;101290.28;;;10.99;46.86
54194;BME280;40102;50.906;6.972;2023-04-27T02:26:37;101281.69;;;10.92;46.83
54194;BME280;40102;50.906;6.972;2023-04-27T02:29:02;101289.72;;;10.92;46.90
54194;BME280;40102;50.906;6.972;2023-04-27T02:31:28;101280.00;;;10.90;47.09
54194;BME280;40102;50.906;6.972;2023-04-27T02:33:53;101297.66;;;10.94;46.88
54194;BME280;40102;50.906;6.972;2023-04-27T02:36:18;101283.25;;;10.96;47.05
54194;BME280;40102;50.906;6.972;2023-04-27T02:38:44;101286.38;;;10.87;47.09
54194;BME280;40102;50.906;6.972;2023-04-27T02:41:09;101296.38;;;10.84;47.47
54194;BME280;40102;50.906;6.972;2023-04-27T02:43:34;101298.25;;;10.82;47.31
54194;BME280;40102;50.906;6.972;2023-04-27T02:46:03;101291.44;;;10.75;47.58
54194;BME280;40102;50.906;6.972;2023-04-27T02:48:29;101289.56;;;10.77;47.89
54194;BME280;40102;50.906;6.972;2023-04-27T02:50:55;101287.84;;;10.76;47.81
54194;BME280;40102;50.906;6.972;2023-04-27T02:53:21;101271.19;;;10.69;47.76
54194;BME280;40102;50.906;6.972;2023-04-27T02:55:47;101266.78;;;10.68;47.65
54194;BME280;40102;50.906;6.972;2023-04-27T02:58:12;101266.00;;;10.66;47.66
54194;BME280;40102;50.906;6.972;2023-04-27T03:00:38;101269.63;;;10.65;47.51
54194;BME280;40102;50.906;6.972;2023-04-27T03:03:05;101280.25;;;10.66;47.65
54194;BME280;40102;50.906;6.972;2023-04-27T03:05:30;101283.00;;;10.65;47.63
54194;BME280;40102;50.906;6.972;2023-04-27T03:07:56;101261.00;;;10.58;47.55
54194;BME280;40102;50.906;6.972;2023-04-27T03:10:21;101274.25;;;10.61;47.68
54194;BME280;40102;50.906;6.972;2023-04-27T03:12:46;101277.06;;;10.58;47.89
54194;BME280;40102;50.906;6.972;2023-04-27T03:15:12;101272.06;;;10.51;47.82
54194;BME280;40102;50.906;6.972;2023-04-27T03:17:37;101268.66;;;10.47;47.94
54194;BME280;40102;50.906;6.972;2023-04-27T03:20:03;101271.47;;;10.44;48.12
54194;BME280;40102;50.906;6.972;2023-04-27T03:22:31;101267.16;;;10.42;48.24
54194;BME280;40102;50.906;6.972;2023-04-27T03:24:56;101278.63;;;10.44;48.14
54194;BME280;40102;50.906;6.972;2023-04-27T03:27:21;101276.22;;;10.39;48.31
54194;BME280;40102;50.906;6.972;2023-04-27T03:29:51;101269.34;;;10.33;48.18
54194;BME280;40102;50.906;6.972;2023-04-27T03:32:19;101286.03;;;10.38;48.51
54194;BME280;40102;50.906;6.972;2023-04-27T03:34:45;101278.16;;;10.35;48.39
54194;BME280;40102;50.906;6.972;2023-04-27T03:37:11;101266.88;;;10.29;48.46
54194;BME280;40102;50.906;6.972;2023-04-27T03:39:36;101267.81;;;10.28;48.39
54194;BME280;40102;50.906;6.972;2023-04-27T03:42:01;101260.25;;;10.17;48.38
54194;BME280;40102;50.906;6.972;2023-04-27T03:44:27;101279.44;;;10.27;48.54
54194;BME280;40102;50.906;6.972;2023-04-27T03:46:53;101283.84;;;10.28;48.45
54194;BME280;40102;50.906;6.972;2023-04-27T03:49:18;101272.50;;;10.23;48.24
54194;BME280;40102;50.906;6.972;2023-04-27T03:51:43;101272.63;;;10.20;48.37
54194;BME280;40102;50.906;6.972;2023-04-27T03:54:09;101281.56;;;10.19;48.45
54194;BME280;40102;50.906;6.972;2023-04-27T03:56:34;101295.78;;;10.19;48.62
54194;BME280;40102;50.906;6.972;2023-04-27T03:59:01;101279.38;;;10.08;48.83
54194;BME280;40102;50.906;6.972;2023-04-27T04:01:27;101287.47;;;10.06;48.69
54194;BME280;40102;50.906;6.972;2023-04-27T04:03:52;101291.94;;;10.06;48.72
54194;BME280;40102;50.906;6.972;2023-04-27T04:06:18;101290.19;;;10.05;48.88
54194;BME280;40102;50.906;6.972;2023-04-27T04:08:43;101282.25;;;10.03;48.94
54194;BME280;40102;50.906;6.972;2023-04-27T04:11:29;101304.16;;;10.12;48.67
54194;BME280;40102;50.906;6.972;2023-04-27T04:13:54;101302.44;;;10.11;48.33
54194;BME280;40102;50.906;6.972;2023-04-27T04:16:20;101298.28;;;10.03;48.54
54194;BME280;40102;50.906;6.972;2023-04-27T04:18:45;101308.72;;;10.10;48.76
54194;BME280;40102;50.906;6.972;2023-04-27T04:21:10;101300.16;;;10.01;48.88
54194;BME280;40102;50.906;6.972;2023-04-27T04:23:36;101307.25;;;10.02;48.90
54194;BME280;40102;50.906;6.972;2023-04-27T04:26:02;101313.66;;;9.98;49.02
54194;BME280;40102;50.906;6.972;2023-04-27T04:28:28;101321.66;;;9.98;49.07
54194;BME280;40102;50.906;6.972;2023-04-27T04:30:53;101326.16;;;9.98;49.47
54194;BME280;40102;50.906;6.972;2023-04-27T04:33:19;101321.88;;;9.94;49.16
54194;BME280;40102;50.906;6.972;2023-04-27T04:35:44;101312.19;;;9.91;49.33
54194;BME280;40102;50.906;6.972;2023-04-27T04:38:10;101309.50;;;9.91;48.79
54194;BME280;40102;50.906;6.972;2023-04-27T04:40:39;101314.72;;;9.94;49.21
54194;BME280;40102;50.906;6.972;2023-04-27T04:43:05;101323.88;;;9.89;49.21
54194;BME280;40102;50.906;6.972;2023-04-27T04:45:31;101328.41;;;9.87;49.35
54194;BME280;40102;50.906;6.972;2023-04-27T04:47:56;101329.09;;;9.92;49.22
54194;BME280;40102;50.906;6.972;2023-04-27T04:50:22;101317.00;;;9.83;48.98
54194;BME280;40102;50.906;6.972;2023-04-27T04:52:48;101318.78;;;9.83;49.45
54194;BME280;40102;50.906;6.972;2023-04-27T04:55:13;101325.81;;;9.85;49.52
54194;BME280;40102;50.906;6.972;2023-04-27T04:57:39;101310.91;;;9.80;49.24
54194;BME280;40102;50.906;6.972;2023-04-27T05:00:05;101321.66;;;9.78;49.61
54194;BME280;40102;50.906;6.972;2023-04-27T05:02:35;101335.81;;;9.80;49.75
54194;BME280;40102;50.906;6.972;2023-04-27T05:05:00;101343.84;;;9.80;49.86
54194;BME280;40102;50.906;6.972;2023-04-27T05:07:25;101345.59;;;9.81;49.67
54194;BME280;40102;50.906;6.972;2023-04-27T05:09:51;101330.75;;;9.74;49.71
54194;BME280;40102;50.906;6.972;2023-04-27T05:12:16;101343.03;;;9.78;49.54
54194;BME280;40102;50.906;6.972;2023-04-27T05:14:42;101353.41;;;9.86;49.75
54194;BME280;40102;50.906;6.972;2023-04-27T05:17:08;101344.78;;;9.79;49.86
54194;BME280;40102;50.906;6.972;2023-04-27T05:19:33;101344.84;;;9.78;49.68
54194;BME280;40102;50.906;6.972;2023-04-27T05:22:01;101336.97;;;9.74;49.74
54194;BME280;40102;50.906;6.972;2023-04-27T05:24:27;101332.75;;;9.69;49.53
54194;BME280;40102;50.906;6.972;2023-04-27T05:26:52;101330.19;;;9.66;50.08
54194;BME280;40102;50.906;6.972;2023-04-27T05:29:18;101336.47;;;9.65;49.88
54194;BME280;40102;50.906;6.972;2023-04-27T05:31:43;101354.13;;;9.69;50.06
54194;BME280;40102;50.906;6.972;2023-04-27T05:34:08;101351.56;;;9.66;50.08
54194;BME280;40102;50.906;6.972;2023-04-27T05:36:35;101353.91;;;9.73;49.84
54194;BME280;40102;50.906;6.972;2023-04-27T05:39:01;101350.00;;;10.02;61.30
54194;BME280;40102;50.906;6.972;2023-04-27T05:41:28;101352.31;;;10.51;61.01
54194;BME280;40102;50.906;6.972;2023-04-27T05:43:53;101345.13;;;10.90;56.44
54194;BME280;40102;50.906;6.972;2023-04-27T05:46:19;101350.41;;;10.92;51.57
54194;BME280;40102;50.906;6.972;2023-04-27T05:48:45;101356.31;;;10.80;49.70
54194;BME280;40102;50.906;6.972;2023-04-27T05:51:10;101371.41;;;10.62;49.49
54194;BME280;40102;50.906;6.972;2023-04-27T05:53:36;101369.50;;;10.45;49.08
54194;BME280;40102;50.906;6.972;2023-04-27T05:56:01;101376.03;;;10.40;49.29
54194;BME280;40102;50.906;6.972;2023-04-27T05:58:28;101367.00;;;10.22;49.43
54194;BME280;40102;50.906;6.972;2023-04-27T06:00:54;101369.91;;;10.16;49.59
54194;BME280;40102;50.906;6.972;2023-04-27T06:03:19;101370.13;;;10.11;49.75
54194;BME280;40102;50.906;6.972;2023-04-27T06:05:45;101379.94;;;10.11;49.89
54194;BME280;40102;50.906;6.972;2023-04-27T06:08:10;101369.66;;;10.01;50.08
54194;BME280;40102;50.906;6.972;2023-04-27T06:10:37;101369.78;;;9.98;50.22
54194;BME280;40102;50.906;6.972;2023-04-27T06:13:02;101378.59;;;10.00;50.22
54194;BME280;40102;50.906;6.972;2023-04-27T06:15:28;101375.31;;;9.94;50.48
54194;BME280;40102;50.906;6.972;2023-04-27T06:17:53;101376.38;;;9.90;50.46
54194;BME280;40102;50.906;6.972;2023-04-27T06:20:18;101377.31;;;9.89;50.69
54194;BME280;40102;50.906;6.972;2023-04-27T06:22:44;101375.50;;;9.89;50.42
54194;BME280;40102;50.906;6.972;2023-04-27T06:25:11;101380.72;;;9.92;50.30
54194;BME280;40102;50.906;6.972;2023-04-27T06:27:36;101378.88;;;9.94;50.25
54194;BME280;40102;50.906;6.972;2023-04-27T06:30:02;101380.47;;;9.98;50.07
54194;BME280;40102;50.906;6.972;2023-04-27T06:32:27;101379.53;;;9.99;50.37
54194;BME280;40102;50.906;6.972;2023-04-27T06:34:52;101382.22;;;9.99;50.62
54194;BME280;40102;50.906;6.972;2023-04-27T06:37:18;101378.78;;;9.96;50.34
54194;BME280;40102;50.906;6.972;2023-04-27T06:39:43;101383.47;;;9.91;50.58
54194;BME280;40102;50.906;6.972;2023-04-27T06:42:09;101376.56;;;9.85;51.03
54194;BME280;40102;50.906;6.972;2023-04-27T06:44:35;101383.66;;;9.86;50.90
54194;BME280;40102;50.906;6.972;2023-04-27T06:47:01;101386.84;;;9.74;51.90
54194;BME280;40102;50.906;6.972;2023-04-27T06:49:26;101388.41;;;9.58;52.58
54194;BME280;40102;50.906;6.972;2023-04-27T06:51:51;101380.41;;;9.58;52.12
54194;BME280;40102;50.906;6.972;2023-04-27T06:54:17;101380.94;;;9.66;52.02
54194;BME280;40102;50.906;6.972;2023-04-27T06:56:42;101388.53;;;9.77;51.66
54194;BME280;40102;50.906;6.972;2023-04-27T06:59:09;101394.09;;;9.92;51.54
54194;BME280;40102;50.906;6.972;2023-04-27T07:01:35;101368.16;;;9.94;51.13
54194;BME280;40102;50.906;6.972;2023-04-27T07:04:02;101379.34;;;10.04;50.75
54194;BME280;40102;50.906;6.972;2023-04-27T07:06:28;101366.72;;;10.07;50.63
54194;BME280;40102;50.906;6.972;2023-04-27T07:08:53;101361.28;;;10.09;51.01
54194;BME280;40102;50.906;6.972;2023-04-27T07:11:19;101376.84;;;10.21;50.75
54194;BME280;40102;50.906;6.972;2023-04-27T07:13:44;101369.63;;;10.23;50.66
54194;BME280;40102;50.906;6.972;2023-04-27T07:16:10;101374.81;;;10.26;50.47
54194;BME280;40102;50.906;6.972;2023-04-27T07:18:35;101378.03;;;10.34;50.35
54194;BME280;40102;50.906;6.972;2023-04-27T07:21:01;101381.28;;;10.41;50.17
54194;BME280;40102;50.906;6.972;2023-04-27T07:23:27;101386.25;;;10.30;50.62
54194;BME280;40102;50.906;6.972;2023-04-27T07:25:53;101372.13;;;10.06;50.96
54194;BME280;40102;50.906;6.972;2023-04-27T07:28:18;101374.59;;;9.90;51.95
54194;BME280;40102;50.906;6.972;2023-04-27T07:30:44;101377.47;;;9.64;52.86
54194;BME280;40102;50.906;6.972;2023-04-27T07:33:09;101365.25;;;9.58;53.14
54194;BME280;40102;50.906;6.972;2023-04-27T07:35:35;101371.59;;;9.56;53.27
54194;BME280;40102;50.906;6.972;2023-04-27T07:38:01;101364.44;;;9.56;52.48
54194;BME280;40102;50.906;6.972;2023-04-27T07:40:27;101372.13;;;9.64;52.48
54194;BME280;40102;50.906;6.972;2023-04-27T07:42:53;101363.56;;;9.56;52.86
54194;BME280;40102;50.906;6.972;2023-04-27T07:45:19;101363.50;;;9.57;52.81
54194;BME280;40102;50.906;6.972;2023-04-27T07:47:45;101367.72;;;9.63;52.25
54194;BME280;40102;50.906;6.972;2023-04-27T07:50:12;101360.09;;;9.54;52.48
54194;BME280;40102;50.906;6.972;2023-04-27T07:52:41;101359.91;;;9.58;51.42
54194;BME280;40102;50.906;6.972;2023-04-27T07:55:07;101363.38;;;9.60;51.62
54194;BME280;40102;50.906;6.972;2023-04-27T07:57:32;101358.78;;;9.64;50.38
54194;BME280;40102;50.906;6.972;2023-04-27T07:59:58;101364.00;;;9.67;51.61
54194;BME280;40102;50.906;6.972;2023-04-27T08:02:26;101370.75;;;9.76;51.44
54194;BME280;40102;50.906;6.972;2023-04-27T08:04:54;101353.78;;;9.77;51.23
54194;BME280;40102;50.906;6.972;2023-04-27T08:07:19;101362.47;;;9.82;51.26
54194;BME280;40102;50.906;6.972;2023-04-27T08:09:45;101353.34;;;9.87;50.73
54194;BME280;40102;50.906;6.972;2023-04-27T08:12:10;101345.78;;;9.97;50.74
54194;BME280;40102;50.906;6.972;2023-04-27T08:14:35;101343.38;;;10.11;50.31
54194;BME280;40102;50.906;6.972;2023-04-27T08:17:01;101337.91;;;10.14;49.52
54194;BME280;40102;50.906;6.972;2023-04-27T08:19:26;101346.56;;;10.21;48.74
54194;BME280;40102;50.906;6.972;2023-04-27T08:21:51;101343.63;;;10.27;49.38
54194;BME280;40102;50.906;6.972;2023-04-27T08:24:17;101336.53;;;10.26;47.67
54194;BME280;40102;50.906;6.972;2023-04-27T08:26:43;101340.59;;;10.34;48.28
54194;BME280;40102;50.906;6.972;2023-04-27T08:29:08;101346.50;;;10.41;48.37
54194;BME280;40102;50.906;6.972;2023-04-27T08:31:34;101336.84;;;10.38;47.16
54194;BME280;40102;50.906;6.972;2023-04-27T08:33:59;101335.03;;;10.39;47.14
54194;BME280;40102;50.906;6.972;2023-04-27T08:36:25;101336.31;;;10.49;47.36
54194;BME280;40102;50.906;6.972;2023-04-27T08:38:52;101339.16;;;10.65;47.57
54194;BME280;40102;50.906;6.972;2023-04-27T08:41:22;101329.06;;;10.71;47.20
54194;BME280;40102;50.906;6.972;2023-04-27T08:43:48;101330.34;;;10.82;47.21
54194;BME280;40102;50.906;6.972;2023-04-27T08:46:20;101325.38;;;10.93;46.51
54194;BME280;40102;50.906;6.972;2023-04-27T08:48:49;101329.63;;;10.97;45.40
54194;BME280;40102;50.906;6.972;2023-04-27T08:51:15;101326.97;;;10.97;45.57
54194;BME280;40102;50.906;6.972;2023-04-27T08:53:50;101327.19;;;10.92;45.43
54194;BME280;40102;50.906;6.972;2023-04-27T08:56:20;101327.91;;;10.96;46.35
54194;BME280;40102;50.906;6.972;2023-04-27T08:58:56;101333.25;;;10.96;45.39
54194;BME280;40102;50.906;6.972;2023-04-27T09:01:22;101344.19;;;10.91;44.44
54194;BME280;40102;50.906;6.972;2023-04-27T09:03:53;101328.41;;;10.85;44.33
54194;BME280;40102;50.906;6.972;2023-04-27T09:06:28;101317.56;;;10.88;44.61
54194;BME280;40102;50.906;6.972;2023-04-27T09:08:53;101323.41;;;10.96;44.74
54194;BME280;40102;50.906;6.972;2023-04-27T09:11:32;101323.69;;;11.09;44.55
54194;BME280;40102;50.906;6.972;2023-04-27T09:14:02;101322.44;;;11.16;44.68
54194;BME280;40102;50.906;6.972;2023-04-27T09:16:30;101312.59;;;11.17;44.78
54194;BME280;40102;50.906;6.972;2023-04-27T09:18:57;101311.75;;;11.16;45.15
54194;BME280;40102;50.906;6.972;2023-04-27T09:21:24;101314.66;;;11.12;43.61
54194;BME280;40102;50.906;6.972;2023-04-27T09:23:50;101303.44;;;11.03;43.72
54194;BME280;40102;50.906;6.972;2023-04-27T09:26:20;101310.38;;;11.08;43.27
54194;BME280;40102;50.906;6.972;2023-04-27T09:28:47;101314.56;;;11.13;43.52
54194;BME280;40102;50.906;6.972;2023-04-27T09:31:16;101310.00;;;11.15;43.44
54194;BME280;40102;50.906;6.972;2023-04-27T09:33:43;101307.09;;;11.20;44.13
54194;BME280;40102;50.906;6.972;2023-04-27T09:36:09;101316.50;;;11.28;44.12
54194;BME280;40102;50.906;6.972;2023-04-27T09:38:34;101307.44;;;11.31;44.21
54194;BME280;40102;50.906;6.972;2023-04-27T09:41:00;101305.25;;;11.39;44.27
54194;BME280;40102;50.906;6.972;2023-04-27T09:43:26;101308.91;;;11.55;44.17
54194;BME280;40102;50.906;6.972;2023-04-27T09:45:54;101300.63;;;11.60;43.98
54194;BME280;40102;50.906;6.972;2023-04-27T09:48:21;101296.06;;;11.62;43.70
54194;BME280;40102;50.906;6.972;2023-04-27T09:50:48;101299.38;;;11.67;43.86
54194;BME280;40102;50.906;6.972;2023-04-27T09:53:17;101303.34;;;11.77;43.92
54194;BME280;40102;50.906;6.972;2023-04-27T10:01:50;101298.47;;;11.85;43.34
54194;BME280;40102;50.906;6.972;2023-04-27T10:07:09;101289.47;;;11.86;42.92
54194;BME280;40102;50.906;6.972;2023-04-27T10:09:47;101286.88;;;11.85;42.92
54194;BME280;40102;50.906;6.972;2023-04-27T10:14:56;101286.78;;;12.04;42.93
54194;BME280;40102;50.906;6.972;2023-04-27T10:17:30;101274.31;;;12.03;42.93
54194;BME280;40102;50.906;6.972;2023-04-27T10:19:58;101280.22;;;12.09;42.88
54194;BME280;40102;50.906;6.972;2023-04-27T10:22:36;101281.97;;;12.10;42.80
54194;BME280;40102;50.906;6.972;2023-04-27T10:27:38;101265.72;;;12.13;43.31
54194;BME280;40102;50.906;6.972;2023-04-27T10:30:08;101264.59;;;12.17;43.51
54194;BME280;40102;50.906;6.972;2023-04-27T10:32:34;101272.31;;;12.23;42.58
54194;BME280;40102;50.906;6.972;2023-04-27T10:35:04;101266.50;;;12.15;41.89
54194;BME280;40102;50.906;6.972;2023-04-27T10:37:41;101257.75;;;12.12;41.79
54194;BME280;40102;50.906;6.972;2023-04-27T10:40:11;101239.91;;;12.11;41.85
54194;BME280;40102;50.906;6.972;2023-04-27T10:42:42;101246.69;;;12.18;41.83
54194;BME280;40102;50.906;6.972;2023-04-27T10:45:09;101238.81;;;12.15;41.51
54194;BME280;40102;50.906;6.972;2023-04-27T10:47:44;101240.63;;;12.14;41.24
54194;BME280;40102;50.906;6.972;2023-04-27T10:50:11;101243.94;;;12.19;41.41
54194;BME280;40102;50.906;6.972;2023-04-27T10:52:43;101242.19;;;12.18;41.50
54194;BME280;40102;50.906;6.972;2023-04-27T10:55:17;101237.97;;;12.30;43.67
54194;BME280;40102;50.906;6.972;2023-04-27T10:57:47;101244.41;;;12.43;42.37
54194;BME280;40102;50.906;6.972;2023-04-27T11:00:15;101233.84;;;12.40;41.77
54194;BME280;40102;50.906;6.972;2023-04-27T11:02:43;101231.50;;;12.34;41.24
54194;BME280;40102;50.906;6.972;2023-04-27T11:05:19;101235.75;;;12.38;41.31
54194;BME280;40102;50.906;6.972;2023-04-27T11:07:45;101242.16;;;12.51;43.10
54194;BME280;40102;50.906;6.972;2023-04-27T11:10:16;101235.59;;;12.57;42.40
54194;BME280;40102;50.906;6.972;2023-04-27T11:12:42;101239.50;;;12.67;42.20
54194;BME280;40102;50.906;6.972;2023-04-27T11:15:08;101235.78;;;12.70;41.14
54194;BME280;40102;50.906;6.972;2023-04-27T11:17:36;101229.78;;;12.64;41.00
54194;BME280;40102;50.906;6.972;2023-04-27T11:20:02;101226.59;;;12.74;42.64
54194;BME280;40102;50.906;6.972;2023-04-27T11:22:30;101219.91;;;12.81;42.10
54194;BME280;40102;50.906;6.972;2023-04-27T11:24:55;101230.13;;;12.90;40.72
54194;BME280;40102;50.906;6.972;2023-04-27T11:27:21;101216.88;;;12.87;40.64
54194;BME280;40102;50.906;6.972;2023-04-27T11:29:48;101213.75;;;12.94;41.14
54194;BME280;40102;50.906;6.972;2023-04-27T11:32:20;101211.41;;;13.04;40.29
54194;BME280;40102;50.906;6.972;2023-04-27T11:34:51;101213.56;;;13.13;41.78
54194;BME280;40102;50.906;6.972;2023-04-27T11:37:26;101220.16;;;13.23;40.07
54194;BME280;40102;50.906;6.972;2023-04-27T11:39:52;101218.06;;;13.28;39.93
54194;BME280;40102;50.906;6.972;2023-04-27T11:47:19;101211.03;;;13.56;40.78
54194;BME280;40102;50.906;6.972;2023-04-27T11:49:50;101200.31;;;13.70;40.41
54194;BME280;40102;50.906;6.972;2023-04-27T11:52:17;101183.63;;;13.79;40.23
54194;BME280;40102;50.906;6.972;2023-04-27T11:54:52;101185.84;;;13.87;40.14
54194;BME280;40102;50.906;6.972;2023-04-27T11:57:24;101195.25;;;14.08;39.75
54194;BME280;40102;50.906;6.972;2023-04-27T11:59:53;101177.50;;;14.06;40.33
54194;BME280;40102;50.906;6.972;2023-04-27T12:02:20;101183.44;;;14.11;40.55
54194;BME280;40102;50.906;6.972;2023-04-27T12:04:49;101179.88;;;14.10;39.83
54194;BME280;40102;50.906;6.972;2023-04-27T12:07:15;101188.91;;;14.23;39.01
54194;BME280;40102;50.906;6.972;2023-04-27T12:09:41;101189.19;;;14.33;39.61
54194;BME280;40102;50.906;6.972;2023-04-27T12:12:07;101186.72;;;14.44;40.01
54194;BME280;40102;50.906;6.972;2023-04-27T12:14:33;101179.09;;;14.51;39.65
54194;BME280;40102;50.906;6.972;2023-04-27T12:16:58;101172.66;;;14.53;39.28
54194;BME280;40102;50.906;6.972;2023-04-27T12:19:24;101169.75;;;14.56;39.14
54194;BME280;40102;50.906;6.972;2023-04-27T12:21:52;101189.38;;;14.58;38.75
54194;BME280;40102;50.906;6.972;2023-04-27T12:24:18;101175.16;;;14.56;39.27
54194;BME280;40102;50.906;6.972;2023-04-27T12:26:43;101161.00;;;14.67;39.59
54194;BME280;40102;50.906;6.972;2023-04-27T12:29:09;101170.53;;;14.85;39.44
54194;BME280;40102;50.906;6.972;2023-04-27T12:31:35;101164.78;;;15.04;39.84
54194;BME280;40102;50.906;6.972;2023-04-27T12:34:00;101161.09;;;15.32;39.21
54194;BME280;40102;50.906;6.972;2023-04-27T12:36:26;101157.88;;;15.52;37.51
54194;BME280;40102;50.906;6.972;2023-04-27T12:38:53;101161.56;;;15.64;37.64
54194;BME280;40102;50.906;6.972;2023-04-27T12:41:18;101148.53;;;15.58;37.31
54194;BME280;40102;50.906;6.972;2023-04-27T12:43:43;101155.94;;;15.54;36.58
54194;BME280;40102;50.906;6.972;2023-04-27T12:46:10;101165.06;;;15.27;35.55
54194;BME280;40102;50.906;6.972;2023-04-27T12:48:35;101157.47;;;15.06;35.68
54194;BME280;40102;50.906;6.972;2023-04-27T12:51:01;101165.91;;;15.14;37.46
54194;BME280;40102;50.906;6.972;2023-04-27T12:53:27;101154.50;;;15.23;37.76
54194;BME280;40102;50.906;6.972;2023-04-27T12:55:52;101155.16;;;15.27;35.75
54194;BME280;40102;50.906;6.972;2023-04-27T12:58:17;101155.47;;;15.22;35.40
54194;BME280;40102;50.906;6.972;2023-04-27T13:00:43;101161.69;;;15.10;35.88
54194;BME280;40102;50.906;6.972;2023-04-27T13:03:09;101146.28;;;15.12;37.85
54194;BME280;40102;50.906;6.972;2023-04-27T13:05:34;101143.75;;;15.36;37.30
54194;BME280;40102;50.906;6.972;2023-04-27T13:07:59;101156.72;;;15.69;36.66